createdAt,value
2024-04-09T00:01:53.120Z,58.29
2024-04-09T00:04:19.511Z,58.26
2024-04-09T00:06:46.023Z,58.35
2024-04-09T00:09:12.414Z,58.36
2024-04-09T00:11:38.946Z,58.44
2024-04-09T00:14:05.385Z,58.52
2024-04-09T00:16:31.698Z,58.63
2024-04-09T00:18:58.209Z,58.72
2024-04-09T00:21:25.063Z,58.85
2024-04-09T00:23:51.494Z,59.03
2024-04-09T00:26:17.780Z,59.06
2024-04-09T00:28:44.078Z,59.26
2024-04-09T00:31:10.379Z,59.32
2024-04-09T00:33:36.820Z,59.34
2024-04-09T00:36:03.388Z,59.69
2024-04-09T00:38:29.712Z,59.94
2024-04-09T00:40:56.012Z,59.88
2024-04-09T00:43:22.308Z,60.12
2024-04-09T00:45:48.625Z,60.10
2024-04-09T00:48:15.092Z,60.30
2024-04-09T00:50:41.545Z,60.45
2024-04-09T00:53:07.840Z,60.37
2024-04-09T00:55:34.171Z,60.39
2024-04-09T00:58:00.536Z,60.45
2024-04-09T01:00:26.892Z,60.28
2024-04-09T01:02:53.318Z,60.45
2024-04-09T01:05:19.645Z,60.49
2024-04-09T01:07:45.963Z,60.51
2024-04-09T01:10:12.306Z,60.64
2024-04-09T01:12:38.739Z,60.66
2024-04-09T01:15:05.170Z,60.71
2024-04-09T01:17:31.764Z,60.77
2024-04-09T01:19:58.233Z,60.68
2024-04-09T01:22:24.553Z,60.67
2024-04-09T01:24:50.861Z,60.59
2024-04-09T01:27:17.224Z,60.65
2024-04-09T01:29:43.650Z,60.69
2024-04-09T01:32:09.979Z,60.48
2024-04-09T01:34:36.401Z,60.63
2024-04-09T01:37:02.838Z,60.31
2024-04-09T01:39:29.302Z,60.39
2024-04-09T01:41:55.853Z,60.42
2024-04-09T01:44:22.175Z,60.55
2024-04-09T01:46:48.523Z,60.74
2024-04-09T01:49:14.836Z,60.75
2024-04-09T01:51:41.157Z,60.79
2024-04-09T01:54:07.486Z,60.93
2024-04-09T01:56:33.803Z,61.29
2024-04-09T01:59:00.114Z,61.50
2024-04-09T02:01:26.458Z,61.68
2024-04-09T02:03:52.862Z,61.80
2024-04-09T02:06:19.295Z,61.91
2024-04-09T02:08:45.736Z,62.02
2024-04-09T02:11:12.101Z,61.96
2024-04-09T02:13:38.429Z,62.20
2024-04-09T02:16:04.849Z,62.33
2024-04-09T02:18:31.166Z,62.50
2024-04-09T02:20:57.522Z,62.58
2024-04-09T02:23:23.870Z,62.51
2024-04-09T02:25:50.170Z,62.57
2024-04-09T02:28:16.491Z,62.73
2024-04-09T02:30:42.930Z,62.70
2024-04-09T02:33:09.470Z,62.70
2024-04-09T02:35:35.956Z,62.87
2024-04-09T02:38:02.298Z,62.80
2024-04-09T02:40:28.609Z,62.72
2024-04-09T02:42:54.941Z,62.93
2024-04-09T02:45:21.327Z,62.90
2024-04-09T02:47:47.669Z,63.02
2024-04-09T02:50:14.014Z,63.18
2024-04-09T02:52:40.326Z,63.34
2024-04-09T02:55:06.636Z,63.42
2024-04-09T02:57:32.972Z,63.53
2024-04-09T02:59:59.373Z,63.89
2024-04-09T03:02:25.733Z,64.19
2024-04-09T03:04:52.081Z,64.62
2024-04-09T03:07:18.394Z,64.96
2024-04-09T03:09:44.781Z,65.00
2024-04-09T03:12:11.139Z,65.11
2024-04-09T03:14:37.452Z,65.37
2024-04-09T03:17:03.749Z,65.51
2024-04-09T03:19:30.056Z,65.65
2024-04-09T03:21:56.377Z,65.57
2024-04-09T03:24:22.758Z,65.29
2024-04-09T03:26:49.058Z,65.48
2024-04-09T03:29:15.380Z,65.59
2024-04-09T03:31:41.676Z,65.57
2024-04-09T03:34:08.138Z,65.69
2024-04-09T03:36:34.627Z,65.51
2024-04-09T03:39:01.212Z,65.39
2024-04-09T03:41:27.593Z,65.43
2024-04-09T03:43:53.890Z,65.23
2024-04-09T03:46:20.181Z,65.28
2024-04-09T03:48:46.829Z,65.27
2024-04-09T03:51:13.554Z,65.39
2024-04-09T03:53:39.969Z,65.51
2024-04-09T03:56:06.287Z,65.51
2024-04-09T03:58:32.683Z,65.66
2024-04-09T04:00:59.166Z,65.64
2024-04-09T04:03:25.688Z,65.72
2024-04-09T04:05:52.042Z,65.72
2024-04-09T04:08:18.352Z,65.65
2024-04-09T04:10:44.688Z,65.79
2024-04-09T04:13:10.994Z,65.85
2024-04-09T04:15:39.228Z,66.02
2024-04-09T04:18:07.251Z,66.06
2024-04-09T04:20:33.717Z,66.12
2024-04-09T04:23:00.052Z,66.14
2024-04-09T04:25:26.370Z,66.12
2024-04-09T04:27:52.682Z,66.19
2024-04-09T04:30:18.997Z,66.06
2024-04-09T04:32:45.365Z,66.15
2024-04-09T04:35:11.700Z,66.33
2024-04-09T04:37:38.011Z,66.28
2024-04-09T04:40:04.342Z,66.17
2024-04-09T04:42:30.705Z,66.31
2024-04-09T04:44:57.091Z,66.30
2024-04-09T04:47:23.562Z,66.34
2024-04-09T04:49:50.230Z,66.54
2024-04-09T04:52:16.720Z,66.57
2024-04-09T04:54:43.065Z,66.64
2024-04-09T04:57:09.498Z,66.69
2024-04-09T04:59:35.833Z,66.75
2024-04-09T05:02:02.236Z,66.71
2024-04-09T05:04:28.616Z,66.90
2024-04-09T05:06:54.997Z,66.88
2024-04-09T05:09:21.463Z,66.71
2024-04-09T05:11:47.848Z,66.65
2024-04-09T05:14:14.179Z,66.76
2024-04-09T05:16:40.503Z,66.92
2024-04-09T05:19:06.964Z,66.89
2024-04-09T05:21:33.471Z,66.87
2024-04-09T05:23:59.851Z,66.87
2024-04-09T05:26:26.178Z,66.92
2024-04-09T05:28:52.491Z,66.92
2024-04-09T05:31:18.817Z,67.03
2024-04-09T05:33:45.161Z,66.96
2024-04-09T05:36:11.538Z,66.84
2024-04-09T05:38:38.499Z,66.94
2024-04-09T05:41:05.066Z,66.84
2024-04-09T05:43:31.384Z,66.88
2024-04-09T05:45:57.777Z,66.91
2024-04-09T05:48:24.283Z,66.85
2024-04-09T05:50:50.764Z,66.80
2024-04-09T05:53:17.083Z,66.71
2024-04-09T05:55:43.392Z,66.64
2024-04-09T05:58:09.698Z,66.63
2024-04-09T06:00:36.196Z,66.60
2024-04-09T06:03:02.678Z,66.52
2024-04-09T06:05:29.030Z,66.37
2024-04-09T06:07:55.396Z,66.31
2024-04-09T06:10:21.716Z,66.29
2024-04-09T06:12:48.297Z,66.31
2024-04-09T06:15:14.826Z,66.30
2024-04-09T06:17:41.353Z,66.16
2024-04-09T06:20:07.951Z,66.16
2024-04-09T06:22:34.396Z,66.21
2024-04-09T06:25:00.695Z,66.05
2024-04-09T06:27:27.015Z,66.10
2024-04-09T06:29:53.421Z,66.21
2024-04-09T06:32:19.757Z,66.01
2024-04-09T06:34:46.109Z,65.98
2024-04-09T06:37:12.469Z,65.90
2024-04-09T06:39:39.032Z,65.94
2024-04-09T06:42:05.597Z,65.67
2024-04-09T06:44:31.986Z,65.66
2024-04-09T06:46:58.303Z,65.39
2024-04-09T06:49:24.805Z,65.37
2024-04-09T06:51:51.270Z,65.24
2024-04-09T06:54:17.661Z,65.17
2024-04-09T06:56:43.989Z,64.95
2024-04-09T06:59:10.285Z,64.67
2024-04-09T07:01:36.739Z,64.51
2024-04-09T07:04:03.298Z,64.32
2024-04-09T07:06:29.725Z,64.43
2024-04-09T07:08:56.118Z,64.11
2024-04-09T07:11:22.497Z,64.12
2024-04-09T07:13:48.951Z,64.00
2024-04-09T07:16:15.254Z,63.95
2024-04-09T07:18:41.640Z,63.83
2024-04-09T07:21:07.984Z,63.64
2024-04-09T07:23:34.312Z,63.68
2024-04-09T07:26:00.651Z,63.52
2024-04-09T07:28:26.957Z,63.40
2024-04-09T07:30:53.370Z,63.47
2024-04-09T07:33:19.818Z,63.16
2024-04-09T07:35:46.255Z,62.92
2024-04-09T07:38:12.568Z,62.77
2024-04-09T07:40:38.864Z,62.62
2024-04-09T07:43:05.170Z,62.43
2024-04-09T07:45:31.530Z,62.13
2024-04-09T07:47:57.917Z,61.75
2024-04-09T07:50:24.268Z,61.59
2024-04-09T07:52:50.584Z,61.31
2024-04-09T07:55:16.907Z,60.97
2024-04-09T07:57:43.340Z,61.00
2024-04-09T08:00:09.869Z,60.75
2024-04-09T08:02:36.257Z,60.63
2024-04-09T08:05:02.952Z,60.32
2024-04-09T08:07:29.634Z,60.26
2024-04-09T08:09:56.114Z,60.08
2024-04-09T08:12:22.670Z,59.97
2024-04-09T08:14:49.270Z,59.58
2024-04-09T08:17:15.652Z,59.55
2024-04-09T08:19:42.074Z,59.58
2024-04-09T08:22:08.563Z,59.27
2024-04-09T08:24:34.995Z,58.99
2024-04-09T08:27:01.397Z,58.79
2024-04-09T08:29:27.734Z,58.73
2024-04-09T08:31:54.171Z,58.37
2024-04-09T08:34:20.737Z,58.37
2024-04-09T08:36:47.361Z,58.18
2024-04-09T08:39:14.054Z,58.10
2024-04-09T08:41:40.687Z,58.07
2024-04-09T08:44:07.123Z,57.85
2024-04-09T08:46:33.871Z,57.88
2024-04-09T08:49:00.626Z,57.83
2024-04-09T08:51:27.258Z,57.50
2024-04-09T08:53:53.804Z,57.40
2024-04-09T08:56:20.111Z,57.37
2024-04-09T08:58:46.410Z,57.19
2024-04-09T09:01:12.763Z,56.91
2024-04-09T09:03:39.260Z,56.51
2024-04-09T09:06:05.897Z,56.28
2024-04-09T09:08:32.393Z,56.17
2024-04-09T09:10:58.752Z,55.89
2024-04-09T09:13:25.120Z,55.83
2024-04-09T09:15:51.609Z,55.69
2024-04-09T09:18:18.115Z,55.34
2024-04-09T09:20:44.555Z,55.28
2024-04-09T09:23:10.911Z,55.35
2024-04-09T09:25:37.238Z,55.00
2024-04-09T09:28:03.590Z,54.95
2024-04-09T09:30:29.920Z,54.92
2024-04-09T09:32:56.303Z,54.80
2024-04-09T09:35:22.630Z,54.69
2024-04-09T09:37:48.925Z,54.48
2024-04-09T09:40:15.297Z,54.33
2024-04-09T09:42:41.729Z,53.79
2024-04-09T09:45:08.254Z,53.62
2024-04-09T09:47:34.726Z,53.52
2024-04-09T09:50:10.298Z,53.30
2024-04-09T09:52:40.168Z,52.99
2024-04-09T09:55:10.052Z,52.81
2024-04-09T09:57:36.902Z,52.91
2024-04-09T10:00:03.359Z,52.76
2024-04-09T10:02:29.713Z,52.62
2024-04-09T10:04:56.170Z,52.34
2024-04-09T10:07:22.556Z,52.02
2024-04-09T10:09:49.013Z,51.78
2024-04-09T10:12:16.497Z,51.66
2024-04-09T10:14:43.005Z,51.34
2024-04-09T10:17:09.403Z,51.32
2024-04-09T10:19:35.941Z,51.44
2024-04-09T10:22:02.362Z,51.69
2024-04-09T10:24:28.766Z,51.62
2024-04-09T10:26:55.252Z,51.52
2024-04-09T10:29:21.560Z,51.35
2024-04-09T10:31:47.881Z,51.12
2024-04-09T10:34:14.341Z,51.04
2024-04-09T10:36:40.805Z,51.26
2024-04-09T10:39:07.175Z,50.91
2024-04-09T10:41:33.518Z,50.81
2024-04-09T10:43:59.822Z,50.37
2024-04-09T10:46:26.234Z,50.26
2024-04-09T10:48:52.675Z,50.38
2024-04-09T10:51:20.903Z,50.27
2024-04-09T10:53:48.991Z,50.19
2024-04-09T10:56:15.314Z,49.99
2024-04-09T10:58:42.021Z,49.85
2024-04-09T11:01:08.636Z,49.73
2024-04-09T11:03:35.591Z,49.63
2024-04-09T11:06:02.318Z,49.34
2024-04-09T11:08:28.710Z,49.32
2024-04-09T11:10:55.056Z,49.06
2024-04-09T11:13:21.379Z,48.95
2024-04-09T11:15:47.783Z,49.11
2024-04-09T11:18:14.313Z,49.04
2024-04-09T11:20:40.675Z,48.94
2024-04-09T11:23:07.002Z,48.78
2024-04-09T11:25:33.332Z,48.56
2024-04-09T11:27:59.633Z,48.56
2024-04-09T11:30:26.060Z,48.65
2024-04-09T11:32:52.640Z,48.55
2024-04-09T11:35:19.132Z,48.21
2024-04-09T11:37:45.457Z,48.07
2024-04-09T11:40:11.803Z,48.08
2024-04-09T11:42:38.223Z,47.62
2024-04-09T11:45:04.757Z,47.41
2024-04-09T11:47:31.247Z,47.26
2024-04-09T11:49:57.598Z,47.23
2024-04-09T11:52:23.902Z,46.90
2024-04-09T11:54:50.297Z,47.11
2024-04-09T11:57:16.703Z,47.11
2024-04-09T11:59:43.020Z,46.71
2024-04-09T12:02:09.350Z,46.54
2024-04-09T12:04:35.799Z,46.68
2024-04-09T12:07:02.312Z,46.57
2024-04-09T12:09:28.813Z,46.46
2024-04-09T12:11:55.146Z,46.37
2024-04-09T12:14:21.495Z,46.18
2024-04-09T12:16:47.789Z,46.08
2024-04-09T12:19:14.385Z,46.13
2024-04-09T12:21:41.098Z,46.07
2024-04-09T12:24:07.612Z,46.22
2024-04-09T12:26:33.962Z,46.24
2024-04-09T12:29:00.275Z,45.99
2024-04-09T12:31:26.620Z,46.03
2024-04-09T12:33:53.043Z,45.68
2024-04-09T12:36:19.544Z,45.63
2024-04-09T12:38:45.870Z,45.67
2024-04-09T12:41:12.205Z,45.63
2024-04-09T12:43:38.507Z,45.10
2024-04-09T12:46:04.827Z,45.11
2024-04-09T12:48:31.280Z,44.97
2024-04-09T12:50:57.799Z,44.97
2024-04-09T12:53:24.126Z,44.93
2024-04-09T12:55:50.462Z,44.87
2024-04-09T12:58:16.792Z,44.95
2024-04-09T13:01:01.514Z,44.98
2024-04-09T13:03:29.477Z,44.78
2024-04-09T13:05:56.195Z,44.67
2024-04-09T13:08:22.737Z,44.47
2024-04-09T13:10:49.068Z,44.53
2024-04-09T13:13:15.418Z,44.55
2024-04-09T13:18:11.188Z,43.94
2024-04-09T13:20:37.626Z,43.68
2024-04-09T13:23:06.194Z,43.67
2024-04-09T13:25:33.727Z,43.53
2024-04-09T13:28:00.054Z,43.36
2024-04-09T13:30:26.372Z,43.51
2024-04-09T13:32:52.815Z,42.91
2024-04-09T13:35:19.342Z,42.41
2024-04-09T13:37:45.699Z,42.63
2024-04-09T13:40:12.055Z,42.61
2024-04-09T13:42:38.387Z,42.57
2024-04-09T13:45:04.803Z,42.57
2024-04-09T13:47:31.411Z,42.45
2024-04-09T13:49:57.890Z,42.27
2024-04-09T13:52:24.228Z,42.18
2024-04-09T13:54:50.533Z,41.95
2024-04-09T13:57:16.855Z,41.88
2024-04-09T13:59:43.165Z,41.93
2024-04-09T14:02:09.574Z,41.94
2024-04-09T14:04:35.985Z,41.78
2024-04-09T14:07:02.336Z,41.49
2024-04-09T14:09:28.654Z,41.30
2024-04-09T14:11:55.511Z,41.31
2024-04-09T14:14:22.641Z,41.23
2024-04-09T14:16:49.138Z,41.14
2024-04-09T14:19:15.551Z,41.06
2024-04-09T14:21:42.002Z,41.11
2024-04-09T14:24:08.343Z,41.01
2024-04-09T14:26:34.765Z,41.18
2024-04-09T14:29:01.226Z,41.20
2024-04-09T14:31:27.570Z,41.17
2024-04-09T14:33:53.926Z,41.04
2024-04-09T14:36:20.264Z,41.00
2024-04-09T14:38:46.593Z,40.79
2024-04-09T14:41:16.038Z,40.59
2024-04-09T14:43:43.179Z,40.56
2024-04-09T14:46:09.529Z,40.62
2024-04-09T14:48:36.030Z,40.31
2024-04-09T14:51:02.614Z,40.33
2024-04-09T14:53:28.953Z,40.06
2024-04-09T14:55:55.339Z,40.00
2024-04-09T14:58:21.645Z,39.78
2024-04-09T15:00:47.963Z,39.95
2024-04-09T15:03:14.405Z,40.15
2024-04-09T15:05:40.962Z,40.00
2024-04-09T15:08:08.206Z,39.87
2024-04-09T15:10:35.037Z,39.89
2024-04-09T15:13:01.354Z,39.92
2024-04-09T15:15:27.716Z,39.76
2024-04-09T15:17:54.105Z,40.02
2024-04-09T15:20:20.672Z,40.07
2024-04-09T15:22:47.054Z,40.08
2024-04-09T15:25:15.652Z,39.84
2024-04-09T15:27:43.555Z,39.42
2024-04-09T15:30:09.994Z,39.40
2024-04-09T15:32:37.753Z,39.44
2024-04-09T15:35:06.483Z,39.50
2024-04-09T15:37:32.832Z,39.64
2024-04-09T15:39:59.270Z,39.60
2024-04-09T15:42:25.608Z,39.66
2024-04-09T15:44:51.988Z,39.73
2024-04-09T15:47:18.424Z,39.64
2024-04-09T15:49:44.851Z,39.73
2024-04-09T15:52:11.171Z,39.63
2024-04-09T15:54:37.614Z,39.75
2024-04-09T15:57:03.975Z,39.68
2024-04-09T15:59:30.419Z,39.73
2024-04-09T16:01:56.943Z,39.77
2024-04-09T16:04:23.368Z,39.55
2024-04-09T16:06:49.681Z,39.54
2024-04-09T16:09:16.003Z,39.65
2024-04-09T16:11:42.582Z,39.58
2024-04-09T16:14:09.032Z,39.64
2024-04-09T16:16:35.493Z,39.78
2024-04-09T16:19:02.143Z,39.83
2024-04-09T16:21:28.654Z,39.85
2024-04-09T16:23:54.998Z,39.86
2024-04-09T16:26:21.367Z,39.99
2024-04-09T16:28:47.787Z,40.25
2024-04-09T16:31:14.205Z,40.47
2024-04-09T16:33:40.872Z,40.79
2024-04-09T16:36:07.385Z,41.04
2024-04-09T16:38:33.811Z,41.09
2024-04-09T16:41:00.359Z,41.22
2024-04-09T16:43:26.787Z,41.40
2024-04-09T16:45:53.104Z,41.64
2024-04-09T16:48:19.655Z,41.85
2024-04-09T16:50:46.953Z,41.91
2024-04-09T16:53:13.587Z,42.13
2024-04-09T16:55:39.968Z,42.17
2024-04-09T16:58:06.319Z,42.42
2024-04-09T17:00:32.713Z,42.57
2024-04-09T17:02:59.117Z,42.69
2024-04-09T17:05:25.496Z,42.88
2024-04-09T17:07:51.889Z,43.04
2024-04-09T17:10:18.243Z,43.03
2024-04-09T17:12:44.572Z,43.20
2024-04-09T17:15:10.895Z,43.29
2024-04-09T17:17:37.376Z,43.35
2024-04-09T17:20:04.084Z,43.40
2024-04-09T17:22:30.487Z,43.52
2024-04-09T17:24:56.782Z,43.66
2024-04-09T17:27:23.121Z,43.84
2024-04-09T17:29:49.445Z,43.90
2024-04-09T17:32:15.870Z,44.10
2024-04-09T17:34:42.240Z,44.19
2024-04-09T17:37:08.675Z,44.22
2024-04-09T17:39:35.004Z,44.39
2024-04-09T17:42:01.325Z,44.37
2024-04-09T17:44:27.697Z,44.48
2024-04-09T17:46:54.074Z,44.68
2024-04-09T17:49:20.516Z,44.93
2024-04-09T17:51:46.991Z,45.19
2024-04-09T17:54:13.305Z,45.29
2024-04-09T17:56:39.676Z,45.39
2024-04-09T17:59:06.057Z,45.64
2024-04-09T18:01:32.545Z,45.68
2024-04-09T18:03:59.235Z,45.83
2024-04-09T18:06:25.651Z,46.18
2024-04-09T18:08:51.967Z,46.31
2024-04-09T18:11:18.347Z,46.55
2024-04-09T18:13:44.799Z,46.76
2024-04-09T18:16:11.183Z,46.99
2024-04-09T18:18:37.573Z,47.28
2024-04-09T18:21:04.050Z,47.58
2024-04-09T18:23:30.473Z,47.81
2024-04-09T18:25:56.832Z,48.08
2024-04-09T18:28:23.163Z,48.11
2024-04-09T18:30:49.483Z,48.19
2024-04-09T18:33:15.872Z,48.24
2024-04-09T18:35:42.357Z,48.32
2024-04-09T18:38:08.688Z,48.64
2024-04-09T18:40:35.022Z,48.74
2024-04-09T18:43:01.320Z,48.94
2024-04-09T18:45:27.654Z,49.00
2024-04-09T18:47:54.177Z,49.37
2024-04-09T18:50:20.682Z,49.35
2024-04-09T18:52:47.116Z,49.60
2024-04-09T18:55:13.759Z,49.88
2024-04-09T18:57:40.217Z,50.16
2024-04-09T19:00:06.527Z,50.50
2024-04-09T19:02:33.004Z,50.52
2024-04-09T19:04:59.550Z,50.82
2024-04-09T19:07:25.870Z,50.78
2024-04-09T19:09:52.198Z,51.05
2024-04-09T19:12:18.612Z,51.18
2024-04-09T19:14:44.948Z,51.22
2024-04-09T19:17:11.342Z,51.45
2024-04-09T19:19:37.705Z,51.64
2024-04-09T19:22:04.023Z,51.86
2024-04-09T19:24:30.337Z,52.03
2024-04-09T19:26:56.644Z,52.16
2024-04-09T19:29:23.013Z,52.33
2024-04-09T19:31:49.686Z,52.62
2024-04-09T19:34:16.423Z,52.59
2024-04-09T19:36:42.914Z,52.60
2024-04-09T19:39:09.215Z,52.89
2024-04-09T19:41:36.769Z,52.99
2024-04-09T19:44:13.339Z,53.16
2024-04-09T19:46:44.241Z,53.34
2024-04-09T19:49:10.651Z,53.41
2024-04-09T19:51:36.990Z,53.60
2024-04-09T19:54:03.349Z,53.84
2024-04-09T19:56:29.789Z,54.08
2024-04-09T19:58:56.413Z,54.23
2024-04-09T20:01:22.830Z,54.32
2024-04-09T20:03:49.318Z,54.59
2024-04-09T20:06:15.812Z,54.74
2024-04-09T20:08:42.122Z,55.04
2024-04-09T20:11:08.576Z,55.11
2024-04-09T20:13:34.973Z,55.47
2024-04-09T20:16:01.277Z,55.58
2024-04-09T20:18:28.002Z,55.59
2024-04-09T20:20:54.527Z,55.64
2024-04-09T20:23:21.207Z,55.63
2024-04-09T20:25:47.786Z,55.83
2024-04-09T20:28:14.102Z,55.82
2024-04-09T20:30:40.432Z,56.02
2024-04-09T20:33:07.058Z,56.13
2024-04-09T20:35:40.310Z,55.92
2024-04-09T20:38:10.727Z,55.97
2024-04-09T20:40:37.089Z,55.79
2024-04-09T20:43:03.438Z,55.69
2024-04-09T20:45:29.766Z,55.73
2024-04-09T20:47:56.338Z,55.92
2024-04-09T20:50:22.939Z,55.81
2024-04-09T20:52:49.336Z,55.86
2024-04-09T20:55:15.652Z,56.08
2024-04-09T20:57:41.944Z,56.08
2024-04-09T21:00:08.256Z,56.19
2024-04-09T21:02:34.647Z,56.18
2024-04-09T21:05:01.200Z,56.31
2024-04-09T21:07:27.610Z,56.36
2024-04-09T21:09:53.933Z,56.34
2024-04-09T21:12:20.753Z,56.45
2024-04-09T21:14:47.153Z,56.25
2024-04-09T21:17:13.647Z,56.40
2024-04-09T21:19:40.020Z,56.39
2024-04-09T21:22:06.323Z,56.35
2024-04-09T21:24:32.683Z,56.36
2024-04-09T21:26:59.006Z,56.30
2024-04-09T21:29:25.460Z,56.36
2024-04-09T21:31:51.908Z,56.33
2024-04-09T21:34:18.303Z,56.41
2024-04-09T21:36:44.742Z,56.35
2024-04-09T21:39:11.065Z,56.32
2024-04-09T21:41:37.383Z,56.24
2024-04-09T21:44:03.795Z,56.18
2024-04-09T21:46:30.118Z,56.09
2024-04-09T21:48:56.621Z,56.06
2024-04-09T21:51:23.015Z,55.99
2024-04-09T21:53:49.363Z,55.94
2024-04-09T21:56:15.728Z,55.91
2024-04-09T21:58:42.061Z,56.03
2024-04-09T22:01:08.453Z,55.90
2024-04-09T22:03:34.912Z,55.83
2024-04-09T22:06:01.326Z,55.78
2024-04-09T22:08:27.828Z,55.75
2024-04-09T22:10:54.463Z,55.85
2024-04-09T22:13:20.912Z,55.86
2024-04-09T22:15:47.221Z,55.96
2024-04-09T22:18:13.720Z,56.11
2024-04-09T22:20:40.308Z,56.05
2024-04-09T22:23:06.783Z,56.35
2024-04-09T22:25:33.124Z,56.35
2024-04-09T22:27:59.450Z,56.41
2024-04-09T22:30:25.844Z,56.43
2024-04-09T22:32:52.507Z,56.52
2024-04-09T22:35:19.064Z,56.54
2024-04-09T22:37:45.558Z,56.60
2024-04-09T22:40:11.899Z,56.68
2024-04-09T22:42:38.271Z,56.75
2024-04-09T22:45:04.582Z,56.84
2024-04-09T22:47:31.193Z,57.02
2024-04-09T22:49:57.681Z,57.26
2024-04-09T22:52:24.040Z,57.45
2024-04-09T22:54:50.377Z,57.68
2024-04-09T22:57:16.707Z,57.80
2024-04-09T22:59:43.025Z,57.81
2024-04-09T23:02:09.449Z,57.90
2024-04-09T23:04:36.098Z,58.03
2024-04-09T23:07:02.427Z,58.13
2024-04-09T23:09:28.755Z,58.27
2024-04-09T23:11:55.193Z,58.26
2024-04-09T23:14:21.704Z,58.38
2024-04-09T23:16:48.181Z,58.28
2024-04-09T23:19:14.595Z,58.53
2024-04-09T23:21:40.933Z,58.54
2024-04-09T23:24:07.234Z,58.79
2024-04-09T23:26:33.645Z,58.86
2024-04-09T23:28:59.991Z,58.64
2024-04-09T23:31:26.304Z,58.62
2024-04-09T23:33:52.774Z,58.63
2024-04-09T23:36:19.198Z,58.72
2024-04-09T23:38:45.502Z,58.59
2024-04-09T23:41:11.856Z,58.66
2024-04-09T23:43:38.167Z,58.63
2024-04-09T23:46:04.503Z,58.61
2024-04-09T23:48:30.935Z,58.88
2024-04-09T23:50:57.390Z,58.72
2024-04-09T23:53:23.734Z,58.94
2024-04-09T23:55:50.085Z,58.79
2024-04-09T23:58:16.414Z,58.94
